sensor_id;sensor_type;location;lat;lon;timestamp;P1;durP1;ratioP1;P2;durP2;ratioP2
6580;SDS011;3324;50.796;7.228;2023-05-10T00:01:59;0.30;;;0.30;;
6580;SDS011;3324;50.796;7.228;2023-05-10T00:04:25;2.10;;;1.77;;
6580;SDS011;3324;50.796;7.228;2023-05-10T00:06:52;2.10;;;1.90;;
6580;SDS011;3324;50.796;7.228;2023-05-10T00:09:18;2.10;;;1.60;;
6580;SDS011;3324;50.796;7.228;2023-05-10T00:11:44;2.10;;;1.40;;
6580;SDS011;3324;50.796;7.228;2023-05-10T00:14:10;0.30;;;0.30;;
6580;SDS011;3324;50.796;7.228;2023-05-10T00:16:36;0.30;;;0.30;;
6580;SDS011;3324;50.796;7.228;2023-05-10T00:19:02;0.30;;;0.30;;
6580;SDS011;3324;50.796;7.228;2023-05-10T00:21:27;0.20;;;0.20;;
6580;SDS011;3324;50.796;7.228;2023-05-10T00:23:53;2.10;;;1.67;;
6580;SDS011;3324;50.796;7.228;2023-05-10T00:26:19;0.20;;;0.20;;
6580;SDS011;3324;50.796;7.228;2023-05-10T00:28:45;0.30;;;0.30;;
6580;SDS011;3324;50.796;7.228;2023-05-10T00:31:10;0.30;;;0.30;;
6580;SDS011;3324;50.796;7.228;2023-05-10T00:33:36;2.00;;;0.60;;
6580;SDS011;3324;50.796;7.228;2023-05-10T00:36:02;2.00;;;1.30;;
6580;SDS011;3324;50.796;7.228;2023-05-10T00:38:27;0.30;;;0.20;;
6580;SDS011;3324;50.796;7.228;2023-05-10T00:40:53;0.20;;;0.20;;
6580;SDS011;3324;50.796;7.228;2023-05-10T00:43:19;2.00;;;0.70;;
6580;SDS011;3324;50.796;7.228;2023-05-10T00:45:45;2.00;;;1.10;;
6580;SDS011;3324;50.796;7.228;2023-05-10T00:48:11;0.20;;;0.20;;
6580;SDS011;3324;50.796;7.228;2023-05-10T00:50:37;0.30;;;0.20;;
6580;SDS011;3324;50.796;7.228;2023-05-10T00:53:04;1.90;;;0.60;;
6580;SDS011;3324;50.796;7.228;2023-05-10T00:55:31;2.00;;;0.60;;
6580;SDS011;3324;50.796;7.228;2023-05-10T00:57:56;2.20;;;1.10;;
6580;SDS011;3324;50.796;7.228;2023-05-10T01:00:22;0.30;;;0.30;;
6580;SDS011;3324;50.796;7.228;2023-05-10T01:02:48;0.20;;;0.20;;
6580;SDS011;3324;50.796;7.228;2023-05-10T01:05:14;0.30;;;0.30;;
6580;SDS011;3324;50.796;7.228;2023-05-10T01:07:40;2.10;;;1.10;;
6580;SDS011;3324;50.796;7.228;2023-05-10T01:10:06;0.30;;;0.30;;
6580;SDS011;3324;50.796;7.228;2023-05-10T01:12:33;2.10;;;1.40;;
6580;SDS011;3324;50.796;7.228;2023-05-10T01:15:01;0.30;;;0.30;;
6580;SDS011;3324;50.796;7.228;2023-05-10T01:17:28;0.30;;;0.30;;
6580;SDS011;3324;50.796;7.228;2023-05-10T01:19:54;0.30;;;0.30;;
6580;SDS011;3324;50.796;7.228;2023-05-10T01:31:30;0.20;;;0.20;;
6580;SDS011;3324;50.796;7.228;2023-05-10T01:33:59;0.20;;;0.20;;
6580;SDS011;3324;50.796;7.228;2023-05-10T01:36:51;0.20;;;0.20;;
6580;SDS011;3324;50.796;7.228;2023-05-10T01:42:10;0.30;;;0.30;;
6580;SDS011;3324;50.796;7.228;2023-05-10T01:45:21;0.30;;;0.20;;
6580;SDS011;3324;50.796;7.228;2023-05-10T01:47:46;0.30;;;0.30;;
6580;SDS011;3324;50.796;7.228;2023-05-10T01:50:24;2.00;;;0.90;;
6580;SDS011;3324;50.796;7.228;2023-05-10T01:52:54;0.30;;;0.30;;
6580;SDS011;3324;50.796;7.228;2023-05-10T01:55:22;0.30;;;0.25;;
6580;SDS011;3324;50.796;7.228;2023-05-10T01:57:51;0.30;;;0.30;;
6580;SDS011;3324;50.796;7.228;2023-05-10T02:00:22;0.30;;;0.30;;
6580;SDS011;3324;50.796;7.228;2023-05-10T02:02:49;0.30;;;0.30;;
6580;SDS011;3324;50.796;7.228;2023-05-10T02:05:16;0.30;;;0.30;;
6580;SDS011;3324;50.796;7.228;2023-05-10T02:07:42;0.30;;;0.30;;
6580;SDS011;3324;50.796;7.228;2023-05-10T02:10:09;0.30;;;0.30;;
6580;SDS011;3324;50.796;7.228;2023-05-10T02:12:36;0.30;;;0.30;;
6580;SDS011;3324;50.796;7.228;2023-05-10T02:15:06;2.00;;;0.60;;
6580;SDS011;3324;50.796;7.228;2023-05-10T02:17:33;0.30;;;0.30;;
6580;SDS011;3324;50.796;7.228;2023-05-10T02:20:01;0.30;;;0.30;;
6580;SDS011;3324;50.796;7.228;2023-05-10T02:22:28;0.30;;;0.30;;
6580;SDS011;3324;50.796;7.228;2023-05-10T02:24:55;0.30;;;0.30;;
6580;SDS011;3324;50.796;7.228;2023-05-10T02:27:23;0.30;;;0.30;;
6580;SDS011;3324;50.796;7.228;2023-05-10T02:29:50;0.35;;;0.35;;
6580;SDS011;3324;50.796;7.228;2023-05-10T02:32:17;0.30;;;0.30;;
6580;SDS011;3324;50.796;7.228;2023-05-10T02:34:44;0.30;;;0.30;;
6580;SDS011;3324;50.796;7.228;2023-05-10T02:37:14;0.30;;;0.30;;
6580;SDS011;3324;50.796;7.228;2023-05-10T02:39:43;0.30;;;0.30;;
6580;SDS011;3324;50.796;7.228;2023-05-10T02:42:16;2.20;;;0.70;;
6580;SDS011;3324;50.796;7.228;2023-05-10T02:44:43;2.00;;;0.60;;
6580;SDS011;3324;50.796;7.228;2023-05-10T02:47:10;0.30;;;0.30;;
6580;SDS011;3324;50.796;7.228;2023-05-10T02:49:36;0.30;;;0.30;;
6580;SDS011;3324;50.796;7.228;2023-05-10T02:52:02;2.00;;;0.70;;
6580;SDS011;3324;50.796;7.228;2023-05-10T02:54:33;2.00;;;0.70;;
6580;SDS011;3324;50.796;7.228;2023-05-10T02:57:06;0.30;;;0.30;;
6580;SDS011;3324;50.796;7.228;2023-05-10T02:59:34;0.30;;;0.30;;
6580;SDS011;3324;50.796;7.228;2023-05-10T03:02:00;0.20;;;0.20;;
6580;SDS011;3324;50.796;7.228;2023-05-10T03:04:27;0.20;;;0.20;;
6580;SDS011;3324;50.796;7.228;2023-05-10T03:06:52;2.00;;;0.60;;
6580;SDS011;3324;50.796;7.228;2023-05-10T03:09:18;0.30;;;0.30;;
6580;SDS011;3324;50.796;7.228;2023-05-10T03:17:23;0.30;;;0.30;;
6580;SDS011;3324;50.796;7.228;2023-05-10T03:20:11;0.30;;;0.30;;
6580;SDS011;3324;50.796;7.228;2023-05-10T03:22:46;2.00;;;0.60;;
6580;SDS011;3324;50.796;7.228;2023-05-10T03:25:16;0.20;;;0.20;;
6580;SDS011;3324;50.796;7.228;2023-05-10T03:27:43;0.30;;;0.30;;
6580;SDS011;3324;50.796;7.228;2023-05-10T03:30:11;2.00;;;0.70;;
6580;SDS011;3324;50.796;7.228;2023-05-10T03:32:38;0.30;;;0.30;;
6580;SDS011;3324;50.796;7.228;2023-05-10T03:35:07;2.00;;;0.80;;
6580;SDS011;3324;50.796;7.228;2023-05-10T03:37:36;0.30;;;0.30;;
6580;SDS011;3324;50.796;7.228;2023-05-10T03:40:02;0.30;;;0.30;;
6580;SDS011;3324;50.796;7.228;2023-05-10T03:42:28;2.00;;;0.70;;
6580;SDS011;3324;50.796;7.228;2023-05-10T03:44:54;2.00;;;0.70;;
6580;SDS011;3324;50.796;7.228;2023-05-10T03:47:20;0.30;;;0.30;;
6580;SDS011;3324;50.796;7.228;2023-05-10T03:49:45;0.30;;;0.30;;
6580;SDS011;3324;50.796;7.228;2023-05-10T03:52:11;0.30;;;0.30;;
6580;SDS011;3324;50.796;7.228;2023-05-10T03:54:37;2.00;;;0.70;;
6580;SDS011;3324;50.796;7.228;2023-05-10T03:57:02;0.30;;;0.30;;
6580;SDS011;3324;50.796;7.228;2023-05-10T03:59:28;0.30;;;0.30;;
6580;SDS011;3324;50.796;7.228;2023-05-10T04:01:54;0.30;;;0.30;;
6580;SDS011;3324;50.796;7.228;2023-05-10T04:04:20;0.30;;;0.30;;
6580;SDS011;3324;50.796;7.228;2023-05-10T04:06:46;2.00;;;0.70;;
6580;SDS011;3324;50.796;7.228;2023-05-10T04:09:12;2.00;;;0.60;;
6580;SDS011;3324;50.796;7.228;2023-05-10T04:11:38;0.20;;;0.20;;
6580;SDS011;3324;50.796;7.228;2023-05-10T04:14:04;0.30;;;0.30;;
6580;SDS011;3324;50.796;7.228;2023-05-10T04:16:29;0.30;;;0.30;;
6580;SDS011;3324;50.796;7.228;2023-05-10T04:18:55;2.00;;;0.60;;
6580;SDS011;3324;50.796;7.228;2023-05-10T04:21:21;0.20;;;0.20;;
6580;SDS011;3324;50.796;7.228;2023-05-10T04:23:46;0.30;;;0.30;;
6580;SDS011;3324;50.796;7.228;2023-05-10T04:26:12;0.30;;;0.20;;
6580;SDS011;3324;50.796;7.228;2023-05-10T04:28:38;2.00;;;0.60;;
6580;SDS011;3324;50.796;7.228;2023-05-10T04:31:07;2.00;;;0.60;;
6580;SDS011;3324;50.796;7.228;2023-05-10T04:33:34;2.20;;;0.60;;
6580;SDS011;3324;50.796;7.228;2023-05-10T04:36:00;2.00;;;0.60;;
6580;SDS011;3324;50.796;7.228;2023-05-10T04:38:26;0.20;;;0.20;;
6580;SDS011;3324;50.796;7.228;2023-05-10T04:40:52;0.20;;;0.20;;
6580;SDS011;3324;50.796;7.228;2023-05-10T04:43:17;0.30;;;0.20;;
6580;SDS011;3324;50.796;7.228;2023-05-10T04:45:43;0.30;;;0.20;;
6580;SDS011;3324;50.796;7.228;2023-05-10T04:48:09;2.10;;;0.50;;
6580;SDS011;3324;50.796;7.228;2023-05-10T04:50:34;0.30;;;0.20;;
6580;SDS011;3324;50.796;7.228;2023-05-10T04:53:00;0.20;;;0.20;;
6580;SDS011;3324;50.796;7.228;2023-05-10T04:55:26;0.30;;;0.30;;
6580;SDS011;3324;50.796;7.228;2023-05-10T04:57:52;2.00;;;0.60;;
6580;SDS011;3324;50.796;7.228;2023-05-10T05:00:18;0.20;;;0.20;;
6580;SDS011;3324;50.796;7.228;2023-05-10T05:02:44;0.30;;;0.20;;
6580;SDS011;3324;50.796;7.228;2023-05-10T05:05:10;0.30;;;0.20;;
6580;SDS011;3324;50.796;7.228;2023-05-10T05:07:36;0.30;;;0.30;;
6580;SDS011;3324;50.796;7.228;2023-05-10T05:10:03;0.30;;;0.30;;
6580;SDS011;3324;50.796;7.228;2023-05-10T05:12:30;2.17;;;1.95;;
6580;SDS011;3324;50.796;7.228;2023-05-10T05:14:55;0.40;;;0.40;;
6580;SDS011;3324;50.796;7.228;2023-05-10T05:17:21;1.93;;;1.93;;
6580;SDS011;3324;50.796;7.228;2023-05-10T05:19:47;4.50;;;4.50;;
6580;SDS011;3324;50.796;7.228;2023-05-10T05:22:12;6.83;;;6.53;;
6580;SDS011;3324;50.796;7.228;2023-05-10T05:24:38;5.10;;;5.00;;
6580;SDS011;3324;50.796;7.228;2023-05-10T05:27:03;5.40;;;5.30;;
6580;SDS011;3324;50.796;7.228;2023-05-10T05:29:29;6.63;;;6.32;;
6580;SDS011;3324;50.796;7.228;2023-05-10T05:31:55;7.65;;;7.35;;
6580;SDS011;3324;50.796;7.228;2023-05-10T05:34:21;6.10;;;6.00;;
6580;SDS011;3324;50.796;7.228;2023-05-10T05:36:47;6.60;;;6.50;;
6580;SDS011;3324;50.796;7.228;2023-05-10T05:39:13;6.90;;;6.80;;
6580;SDS011;3324;50.796;7.228;2023-05-10T05:41:38;6.60;;;6.50;;
6580;SDS011;3324;50.796;7.228;2023-05-10T05:44:04;7.60;;;7.30;;
6580;SDS011;3324;50.796;7.228;2023-05-10T05:46:30;5.40;;;5.30;;
6580;SDS011;3324;50.796;7.228;2023-05-10T05:48:55;5.20;;;5.10;;
6580;SDS011;3324;50.796;7.228;2023-05-10T05:51:21;6.90;;;6.60;;
6580;SDS011;3324;50.796;7.228;2023-05-10T05:53:47;7.13;;;6.83;;
6580;SDS011;3324;50.796;7.228;2023-05-10T05:56:12;5.10;;;5.00;;
6580;SDS011;3324;50.796;7.228;2023-05-10T05:58:38;4.15;;;4.15;;
6580;SDS011;3324;50.796;7.228;2023-05-10T06:01:04;5.97;;;5.67;;
6580;SDS011;3324;50.796;7.228;2023-05-10T06:03:31;3.90;;;3.90;;
6580;SDS011;3324;50.796;7.228;2023-05-10T06:05:57;3.90;;;3.90;;
6580;SDS011;3324;50.796;7.228;2023-05-10T06:08:23;3.83;;;3.63;;
6580;SDS011;3324;50.796;7.228;2023-05-10T06:10:48;2.10;;;2.10;;
6580;SDS011;3324;50.796;7.228;2023-05-10T06:13:14;1.42;;;1.42;;
6580;SDS011;3324;50.796;7.228;2023-05-10T06:15:40;0.80;;;0.80;;
6580;SDS011;3324;50.796;7.228;2023-05-10T06:18:06;2.88;;;2.67;;
6580;SDS011;3324;50.796;7.228;2023-05-10T06:20:31;0.52;;;0.52;;
6580;SDS011;3324;50.796;7.228;2023-05-10T06:22:57;0.30;;;0.30;;
6580;SDS011;3324;50.796;7.228;2023-05-10T06:25:23;0.40;;;0.40;;
6580;SDS011;3324;50.796;7.228;2023-05-10T06:27:48;2.58;;;2.38;;
6580;SDS011;3324;50.796;7.228;2023-05-10T06:30:14;2.67;;;2.47;;
6580;SDS011;3324;50.796;7.228;2023-05-10T06:32:40;1.00;;;1.00;;
6580;SDS011;3324;50.796;7.228;2023-05-10T06:35:06;1.00;;;1.00;;
6580;SDS011;3324;50.796;7.228;2023-05-10T06:37:33;2.70;;;2.70;;
6580;SDS011;3324;50.796;7.228;2023-05-10T06:39:59;4.00;;;4.00;;
6580;SDS011;3324;50.796;7.228;2023-05-10T06:42:25;2.90;;;2.90;;
6580;SDS011;3324;50.796;7.228;2023-05-10T06:44:52;3.20;;;3.20;;
6580;SDS011;3324;50.796;7.228;2023-05-10T06:47:18;3.60;;;3.60;;
6580;SDS011;3324;50.796;7.228;2023-05-10T06:49:43;5.10;;;5.00;;
6580;SDS011;3324;50.796;7.228;2023-05-10T06:52:09;5.45;;;5.15;;
6580;SDS011;3324;50.796;7.228;2023-05-10T06:54:34;3.03;;;3.03;;
6580;SDS011;3324;50.796;7.228;2023-05-10T06:57:00;1.50;;;1.50;;
6580;SDS011;3324;50.796;7.228;2023-05-10T06:59:27;4.10;;;4.10;;
6580;SDS011;3324;50.796;7.228;2023-05-10T07:01:53;1.30;;;1.30;;
6580;SDS011;3324;50.796;7.228;2023-05-10T07:04:19;6.00;;;5.70;;
6580;SDS011;3324;50.796;7.228;2023-05-10T07:06:44;3.80;;;3.60;;
6580;SDS011;3324;50.796;7.228;2023-05-10T07:09:11;5.20;;;5.10;;
6580;SDS011;3324;50.796;7.228;2023-05-10T07:11:36;1.73;;;1.73;;
6580;SDS011;3324;50.796;7.228;2023-05-10T07:14:02;3.27;;;3.27;;
6580;SDS011;3324;50.796;7.228;2023-05-10T07:16:28;2.55;;;2.35;;
6580;SDS011;3324;50.796;7.228;2023-05-10T07:18:53;1.80;;;1.80;;
6580;SDS011;3324;50.796;7.228;2023-05-10T07:21:19;0.30;;;0.30;;
6580;SDS011;3324;50.796;7.228;2023-05-10T07:23:45;0.30;;;0.30;;
6580;SDS011;3324;50.796;7.228;2023-05-10T07:26:10;2.65;;;2.45;;
6580;SDS011;3324;50.796;7.228;2023-05-10T07:28:36;3.77;;;3.77;;
6580;SDS011;3324;50.796;7.228;2023-05-10T07:31:02;3.40;;;3.40;;
6580;SDS011;3324;50.796;7.228;2023-05-10T07:33:28;3.70;;;3.70;;
6580;SDS011;3324;50.796;7.228;2023-05-10T07:35:54;3.90;;;3.90;;
6580;SDS011;3324;50.796;7.228;2023-05-10T07:38:19;5.95;;;5.65;;
6580;SDS011;3324;50.796;7.228;2023-05-10T07:40:45;0.30;;;0.30;;
6580;SDS011;3324;50.796;7.228;2023-05-10T07:43:10;0.40;;;0.40;;
6580;SDS011;3324;50.796;7.228;2023-05-10T07:45:36;1.50;;;1.50;;
6580;SDS011;3324;50.796;7.228;2023-05-10T07:48:02;3.97;;;3.77;;
6580;SDS011;3324;50.796;7.228;2023-05-10T07:50:27;2.93;;;2.93;;
6580;SDS011;3324;50.796;7.228;2023-05-10T07:52:53;0.30;;;0.30;;
6580;SDS011;3324;50.796;7.228;2023-05-10T07:55:19;1.30;;;1.30;;
6580;SDS011;3324;50.796;7.228;2023-05-10T07:57:46;0.88;;;0.88;;
6580;SDS011;3324;50.796;7.228;2023-05-10T08:00:12;2.40;;;2.20;;
6580;SDS011;3324;50.796;7.228;2023-05-10T08:02:41;2.20;;;2.00;;
6580;SDS011;3324;50.796;7.228;2023-05-10T08:05:07;2.40;;;2.10;;
6580;SDS011;3324;50.796;7.228;2023-05-10T08:07:33;0.40;;;0.40;;
6580;SDS011;3324;50.796;7.228;2023-05-10T08:09:58;0.30;;;0.30;;
6580;SDS011;3324;50.796;7.228;2023-05-10T08:12:24;0.30;;;0.30;;
6580;SDS011;3324;50.796;7.228;2023-05-10T08:14:49;2.20;;;1.70;;
6580;SDS011;3324;50.796;7.228;2023-05-10T08:17:15;0.60;;;0.60;;
6580;SDS011;3324;50.796;7.228;2023-05-10T08:19:41;0.80;;;0.80;;
6580;SDS011;3324;50.796;7.228;2023-05-10T08:22:06;0.30;;;0.30;;
6580;SDS011;3324;50.796;7.228;2023-05-10T08:24:32;2.90;;;2.70;;
6580;SDS011;3324;50.796;7.228;2023-05-10T08:27:03;1.00;;;1.00;;
6580;SDS011;3324;50.796;7.228;2023-05-10T08:29:32;2.10;;;2.10;;
6580;SDS011;3324;50.796;7.228;2023-05-10T08:31:58;4.93;;;4.63;;
6580;SDS011;3324;50.796;7.228;2023-05-10T08:34:23;4.10;;;4.00;;
6580;SDS011;3324;50.796;7.228;2023-05-10T08:36:49;2.50;;;2.50;;
6580;SDS011;3324;50.796;7.228;2023-05-10T08:39:15;3.63;;;3.63;;
6580;SDS011;3324;50.796;7.228;2023-05-10T08:41:41;5.17;;;5.07;;
6580;SDS011;3324;50.796;7.228;2023-05-10T08:44:09;5.60;;;5.50;;
6580;SDS011;3324;50.796;7.228;2023-05-10T08:46:36;5.05;;;4.95;;
6580;SDS011;3324;50.796;7.228;2023-05-10T08:49:08;6.70;;;6.40;;
6580;SDS011;3324;50.796;7.228;2023-05-10T08:51:38;6.00;;;5.90;;
6580;SDS011;3324;50.796;7.228;2023-05-10T08:54:05;6.40;;;6.30;;
6580;SDS011;3324;50.796;7.228;2023-05-10T08:56:31;6.90;;;6.80;;
6580;SDS011;3324;50.796;7.228;2023-05-10T08:58:57;8.02;;;7.72;;
6580;SDS011;3324;50.796;7.228;2023-05-10T09:01:23;6.20;;;6.10;;
6580;SDS011;3324;50.796;7.228;2023-05-10T09:03:50;7.88;;;7.57;;
6580;SDS011;3324;50.796;7.228;2023-05-10T09:06:16;7.95;;;7.85;;
6580;SDS011;3324;50.796;7.228;2023-05-10T09:08:41;7.60;;;7.50;;
6580;SDS011;3324;50.796;7.228;2023-05-10T09:11:08;6.50;;;6.40;;
6580;SDS011;3324;50.796;7.228;2023-05-10T09:13:35;7.80;;;7.70;;
6580;SDS011;3324;50.796;7.228;2023-05-10T09:16:02;5.75;;;5.65;;
6580;SDS011;3324;50.796;7.228;2023-05-10T09:18:28;8.00;;;7.90;;
6580;SDS011;3324;50.796;7.228;2023-05-10T09:20:54;8.10;;;7.90;;
6580;SDS011;3324;50.796;7.228;2023-05-10T09:23:19;7.45;;;7.35;;
6580;SDS011;3324;50.796;7.228;2023-05-10T09:25:45;6.75;;;6.45;;
6580;SDS011;3324;50.796;7.228;2023-05-10T09:28:11;7.25;;;6.95;;
6580;SDS011;3324;50.796;7.228;2023-05-10T09:30:37;5.70;;;5.60;;
6580;SDS011;3324;50.796;7.228;2023-05-10T09:33:04;7.00;;;6.90;;
6580;SDS011;3324;50.796;7.228;2023-05-10T09:35:30;6.60;;;6.50;;
6580;SDS011;3324;50.796;7.228;2023-05-10T09:37:57;6.60;;;6.50;;
6580;SDS011;3324;50.796;7.228;2023-05-10T09:40:26;6.40;;;6.30;;
6580;SDS011;3324;50.796;7.228;2023-05-10T09:42:53;6.80;;;6.70;;
6580;SDS011;3324;50.796;7.228;2023-05-10T09:45:21;6.40;;;6.30;;
6580;SDS011;3324;50.796;7.228;2023-05-10T09:47:48;4.72;;;4.68;;
6580;SDS011;3324;50.796;7.228;2023-05-10T09:50:13;5.00;;;4.90;;
6580;SDS011;3324;50.796;7.228;2023-05-10T09:52:50;4.90;;;4.80;;
6580;SDS011;3324;50.796;7.228;2023-05-10T09:55:17;6.63;;;6.53;;
6580;SDS011;3324;50.796;7.228;2023-05-10T09:57:47;5.60;;;5.30;;
6580;SDS011;3324;50.796;7.228;2023-05-10T10:00:17;3.25;;;3.05;;
6580;SDS011;3324;50.796;7.228;2023-05-10T10:02:47;4.40;;;4.40;;
6580;SDS011;3324;50.796;7.228;2023-05-10T10:05:19;6.40;;;6.30;;
6580;SDS011;3324;50.796;7.228;2023-05-10T10:07:45;5.37;;;5.27;;
6580;SDS011;3324;50.796;7.228;2023-05-10T10:10:11;7.40;;;7.10;;
6580;SDS011;3324;50.796;7.228;2023-05-10T10:12:38;7.93;;;7.63;;
6580;SDS011;3324;50.796;7.228;2023-05-10T10:15:05;6.90;;;6.80;;
6580;SDS011;3324;50.796;7.228;2023-05-10T10:17:32;7.50;;;7.40;;
6580;SDS011;3324;50.796;7.228;2023-05-10T10:20:02;8.00;;;7.90;;
6580;SDS011;3324;50.796;7.228;2023-05-10T10:22:28;8.20;;;8.10;;
6580;SDS011;3324;50.796;7.228;2023-05-10T10:24:54;8.33;;;8.20;;
6580;SDS011;3324;50.796;7.228;2023-05-10T10:27:23;8.10;;;8.00;;
6580;SDS011;3324;50.796;7.228;2023-05-10T10:35:14;9.83;;;9.43;;
6580;SDS011;3324;50.796;7.228;2023-05-10T10:37:42;11.00;;;10.50;;
6580;SDS011;3324;50.796;7.228;2023-05-10T10:42:51;9.30;;;9.10;;
6580;SDS011;3324;50.796;7.228;2023-05-10T10:45:18;10.30;;;9.80;;
6580;SDS011;3324;50.796;7.228;2023-05-10T10:47:44;10.00;;;9.60;;
6580;SDS011;3324;50.796;7.228;2023-05-10T10:50:10;10.60;;;10.10;;
6580;SDS011;3324;50.796;7.228;2023-05-10T10:52:41;9.83;;;9.43;;
6580;SDS011;3324;50.796;7.228;2023-05-10T10:55:11;9.30;;;9.10;;
6580;SDS011;3324;50.796;7.228;2023-05-10T10:57:45;9.90;;;9.60;;
6580;SDS011;3324;50.796;7.228;2023-05-10T11:03:14;9.90;;;9.50;;
6580;SDS011;3324;50.796;7.228;2023-05-10T11:05:47;10.75;;;10.25;;
6580;SDS011;3324;50.796;7.228;2023-05-10T11:10:48;9.10;;;8.90;;
6580;SDS011;3324;50.796;7.228;2023-05-10T11:13:17;9.30;;;9.10;;
6580;SDS011;3324;50.796;7.228;2023-05-10T11:15:56;9.70;;;9.40;;
6580;SDS011;3324;50.796;7.228;2023-05-10T11:20:50;10.95;;;10.45;;
6580;SDS011;3324;50.796;7.228;2023-05-10T11:23:16;10.30;;;10.00;;
6580;SDS011;3324;50.796;7.228;2023-05-10T11:25:43;10.40;;;10.10;;
6580;SDS011;3324;50.796;7.228;2023-05-10T11:28:10;9.20;;;9.00;;
6580;SDS011;3324;50.796;7.228;2023-05-10T11:30:39;9.40;;;9.20;;
6580;SDS011;3324;50.796;7.228;2023-05-10T11:33:07;9.50;;;9.20;;
6580;SDS011;3324;50.796;7.228;2023-05-10T11:35:39;9.63;;;9.33;;
6580;SDS011;3324;50.796;7.228;2023-05-10T11:38:06;9.30;;;9.10;;
6580;SDS011;3324;50.796;7.228;2023-05-10T11:40:35;9.70;;;9.40;;
6580;SDS011;3324;50.796;7.228;2023-05-10T11:43:02;9.65;;;9.40;;
6580;SDS011;3324;50.796;7.228;2023-05-10T11:45:28;9.35;;;9.15;;
6580;SDS011;3324;50.796;7.228;2023-05-10T11:47:57;9.80;;;9.50;;
6580;SDS011;3324;50.796;7.228;2023-05-10T11:50:23;9.43;;;9.20;;
6580;SDS011;3324;50.796;7.228;2023-05-10T11:52:52;9.30;;;9.10;;
6580;SDS011;3324;50.796;7.228;2023-05-10T11:55:19;9.50;;;9.20;;
6580;SDS011;3324;50.796;7.228;2023-05-10T11:57:45;9.30;;;9.10;;
6580;SDS011;3324;50.796;7.228;2023-05-10T12:00:11;10.20;;;9.70;;
6580;SDS011;3324;50.796;7.228;2023-05-10T12:02:38;9.50;;;9.20;;
6580;SDS011;3324;50.796;7.228;2023-05-10T12:05:04;10.10;;;9.60;;
6580;SDS011;3324;50.796;7.228;2023-05-10T12:07:30;10.20;;;9.70;;
6580;SDS011;3324;50.796;7.228;2023-05-10T12:10:05;10.30;;;9.80;;
6580;SDS011;3324;50.796;7.228;2023-05-10T12:12:35;9.50;;;9.20;;
6580;SDS011;3324;50.796;7.228;2023-05-10T12:15:09;9.70;;;9.40;;
6580;SDS011;3324;50.796;7.228;2023-05-10T12:17:37;10.30;;;9.80;;
6580;SDS011;3324;50.796;7.228;2023-05-10T12:20:17;9.80;;;9.50;;
6580;SDS011;3324;50.796;7.228;2023-05-10T12:22:44;9.80;;;9.50;;
6580;SDS011;3324;50.796;7.228;2023-05-10T12:25:18;10.50;;;10.00;;
6580;SDS011;3324;50.796;7.228;2023-05-10T12:27:49;9.80;;;9.50;;
6580;SDS011;3324;50.796;7.228;2023-05-10T12:30:19;9.90;;;9.60;;
6580;SDS011;3324;50.796;7.228;2023-05-10T12:32:53;9.75;;;9.45;;
6580;SDS011;3324;50.796;7.228;2023-05-10T12:35:19;9.87;;;9.57;;
6580;SDS011;3324;50.796;7.228;2023-05-10T12:37:50;10.10;;;9.80;;
6580;SDS011;3324;50.796;7.228;2023-05-10T12:40:16;9.80;;;9.50;;
6580;SDS011;3324;50.796;7.228;2023-05-10T12:42:42;9.90;;;9.60;;
6580;SDS011;3324;50.796;7.228;2023-05-10T12:45:09;9.90;;;9.60;;
6580;SDS011;3324;50.796;7.228;2023-05-10T12:47:35;9.90;;;9.60;;
6580;SDS011;3324;50.796;7.228;2023-05-10T12:50:02;10.10;;;9.80;;
6580;SDS011;3324;50.796;7.228;2023-05-10T12:52:28;10.10;;;9.80;;
6580;SDS011;3324;50.796;7.228;2023-05-10T12:54:54;9.90;;;9.60;;
6580;SDS011;3324;50.796;7.228;2023-05-10T12:57:20;10.03;;;9.73;;
6580;SDS011;3324;50.796;7.228;2023-05-10T12:59:46;10.80;;;10.20;;
6580;SDS011;3324;50.796;7.228;2023-05-10T13:02:12;10.50;;;10.00;;
6580;SDS011;3324;50.796;7.228;2023-05-10T13:04:39;10.80;;;10.20;;
6580;SDS011;3324;50.796;7.228;2023-05-10T13:07:08;10.60;;;10.20;;
6580;SDS011;3324;50.796;7.228;2023-05-10T13:09:34;10.35;;;10.00;;
6580;SDS011;3324;50.796;7.228;2023-05-10T13:12:00;9.90;;;9.60;;
6580;SDS011;3324;50.796;7.228;2023-05-10T13:14:26;10.10;;;9.80;;
6580;SDS011;3324;50.796;7.228;2023-05-10T13:16:52;10.50;;;10.10;;
6580;SDS011;3324;50.796;7.228;2023-05-10T13:19:18;11.05;;;10.45;;
6580;SDS011;3324;50.796;7.228;2023-05-10T13:21:44;11.10;;;10.50;;
6580;SDS011;3324;50.796;7.228;2023-05-10T13:24:10;10.10;;;9.80;;
6580;SDS011;3324;50.796;7.228;2023-05-10T13:26:38;10.10;;;9.80;;
6580;SDS011;3324;50.796;7.228;2023-05-10T13:29:05;10.40;;;10.00;;
6580;SDS011;3324;50.796;7.228;2023-05-10T13:31:31;10.15;;;9.85;;
6580;SDS011;3324;50.796;7.228;2023-05-10T13:33:57;11.00;;;10.40;;
6580;SDS011;3324;50.796;7.228;2023-05-10T13:36:22;9.00;;;8.80;;
6580;SDS011;3324;50.796;7.228;2023-05-10T13:38:48;9.70;;;9.40;;
6580;SDS011;3324;50.796;7.228;2023-05-10T13:41:14;9.90;;;9.40;;
6580;SDS011;3324;50.796;7.228;2023-05-10T13:43:39;9.80;;;9.50;;
6580;SDS011;3324;50.796;7.228;2023-05-10T13:46:05;9.30;;;9.10;;
6580;SDS011;3324;50.796;7.228;2023-05-10T13:48:30;8.80;;;8.60;;
6580;SDS011;3324;50.796;7.228;2023-05-10T13:50:56;10.40;;;9.90;;
6580;SDS011;3324;50.796;7.228;2023-05-10T13:53:22;9.50;;;9.20;;
6580;SDS011;3324;50.796;7.228;2023-05-10T13:55:47;9.70;;;9.40;;
6580;SDS011;3324;50.796;7.228;2023-05-10T13:58:13;10.40;;;9.90;;
6580;SDS011;3324;50.796;7.228;2023-05-10T14:00:39;10.40;;;9.90;;
6580;SDS011;3324;50.796;7.228;2023-05-10T14:03:05;9.70;;;9.40;;
6580;SDS011;3324;50.796;7.228;2023-05-10T14:05:31;9.60;;;9.30;;
6580;SDS011;3324;50.796;7.228;2023-05-10T14:07:57;9.40;;;9.20;;
6580;SDS011;3324;50.796;7.228;2023-05-10T14:10:23;9.50;;;9.20;;
6580;SDS011;3324;50.796;7.228;2023-05-10T14:12:49;10.30;;;9.80;;
6580;SDS011;3324;50.796;7.228;2023-05-10T14:15:14;9.50;;;9.20;;
6580;SDS011;3324;50.796;7.228;2023-05-10T14:17:40;9.30;;;9.10;;
6580;SDS011;3324;50.796;7.228;2023-05-10T14:20:06;9.25;;;9.05;;
6580;SDS011;3324;50.796;7.228;2023-05-10T14:22:32;10.40;;;9.90;;
6580;SDS011;3324;50.796;7.228;2023-05-10T14:24:58;10.50;;;10.00;;
6580;SDS011;3324;50.796;7.228;2023-05-10T14:27:23;9.40;;;9.20;;
6580;SDS011;3324;50.796;7.228;2023-05-10T14:29:49;9.50;;;9.20;;
6580;SDS011;3324;50.796;7.228;2023-05-10T14:32:15;10.20;;;9.70;;
6580;SDS011;3324;50.796;7.228;2023-05-10T14:34:40;9.40;;;9.20;;
6580;SDS011;3324;50.796;7.228;2023-05-10T14:37:06;9.60;;;9.30;;
6580;SDS011;3324;50.796;7.228;2023-05-10T14:39:31;9.40;;;9.20;;
6580;SDS011;3324;50.796;7.228;2023-05-10T14:41:58;10.60;;;10.10;;
6580;SDS011;3324;50.796;7.228;2023-05-10T14:44:23;9.30;;;9.10;;
6580;SDS011;3324;50.796;7.228;2023-05-10T14:46:50;9.30;;;9.10;;
6580;SDS011;3324;50.796;7.228;2023-05-10T14:49:16;9.10;;;8.90;;
6580;SDS011;3324;50.796;7.228;2023-05-10T14:51:42;8.32;;;8.20;;
6580;SDS011;3324;50.796;7.228;2023-05-10T14:54:07;8.25;;;7.95;;
6580;SDS011;3324;50.796;7.228;2023-05-10T14:56:33;8.10;;;8.00;;
6580;SDS011;3324;50.796;7.228;2023-05-10T14:58:58;7.90;;;7.80;;
6580;SDS011;3324;50.796;7.228;2023-05-10T15:01:25;0.80;;;0.80;;
6580;SDS011;3324;50.796;7.228;2023-05-10T15:03:50;2.00;;;0.90;;
6580;SDS011;3324;50.796;7.228;2023-05-10T15:06:16;0.30;;;0.30;;
6580;SDS011;3324;50.796;7.228;2023-05-10T15:08:42;0.30;;;0.30;;
6580;SDS011;3324;50.796;7.228;2023-05-10T15:11:08;0.30;;;0.30;;
6580;SDS011;3324;50.796;7.228;2023-05-10T15:13:34;0.30;;;0.30;;
6580;SDS011;3324;50.796;7.228;2023-05-10T15:15:59;2.10;;;1.40;;
6580;SDS011;3324;50.796;7.228;2023-05-10T15:18:25;0.30;;;0.30;;
6580;SDS011;3324;50.796;7.228;2023-05-10T15:20:51;0.60;;;0.60;;
6580;SDS011;3324;50.796;7.228;2023-05-10T15:23:16;3.43;;;3.43;;
6580;SDS011;3324;50.796;7.228;2023-05-10T15:25:42;7.68;;;7.38;;
6580;SDS011;3324;50.796;7.228;2023-05-10T15:28:07;7.60;;;7.50;;
6580;SDS011;3324;50.796;7.228;2023-05-10T15:30:33;6.40;;;6.30;;
6580;SDS011;3324;50.796;7.228;2023-05-10T15:32:59;2.00;;;2.00;;
6580;SDS011;3324;50.796;7.228;2023-05-10T15:35:25;5.50;;;5.20;;
6580;SDS011;3324;50.796;7.228;2023-05-10T15:37:51;5.90;;;5.60;;
6580;SDS011;3324;50.796;7.228;2023-05-10T15:40:17;0.63;;;0.63;;
6580;SDS011;3324;50.796;7.228;2023-05-10T15:42:42;0.20;;;0.20;;
6580;SDS011;3324;50.796;7.228;2023-05-10T15:45:08;0.30;;;0.20;;